Airfield :







YOU CAN JOIN US ON...

 
LOGIN :

Register | Disclaimer

   EN    FR    IT 

 









Legend :    VFR   Marginal VFR   IFR   Intensive IFR   Very Intensive IFR
Visi :
Ceiling :
>= 8 km
>= 3000ft
5 to 8 km
1000 to 3000 ft
1500m to 5 km
500 to 1000 ft
800 to 1500m
200 to 500 ft
< 800m
< 200 ft
Symbols :   Thunderstorms  Fog  Heavy snow  Heavy precipitations  Wind > 20 kt






- Airport Elevation : 285 ft
- IATA code : ALB


KALB - Albany International

CURRENT METAR :
  • 081751Z VRB06KT 10SM SCT030 BKN050 OVC070 13/03 A2959 RMK AO2 SLP020 OCNL BINOVC 60000 T01280028 10128 20072 55004

EXPIRED METARs :
  • 081651Z 30004KT 10SM FEW025 BKN044 BKN070 12/03 A2959 RMK AO2 SLP019 T01170033
  • 081551Z 35003KT 10SM FEW025 OVC040 11/03 A2959 RMK AO2 RAB24E44 SLP021 P0000 T01060028

TAF KALB
Valid from the 08 at 18:00 until the 09 at 18:00 UTC


081730Z 0818/0918 32006KT P6SM FEW030 BKN070
FM090200 VRB03KT P6SM SCT200
FM091000 15006KT P6SM OVC080
FM091200 16009KT 6SM -RA BR OVC040
FM091400 17010G18KT 5SM -RA BR SCT010 OVC020
PROB30 0915/0918 2SM RA BR OVC010



MET'MAP, your aeronautical weather chart ! - Copyright ORBIFLY December 2007 - Disclaimer

ORBIFLY MET'MAP TEAM :

Programming & Development : Alexandra Zaïnal
Concept & original design : Baudouin d'Aumeries
Assistance for programming : Marc-Olivier Méhu
Technical & hardware support : Manuel Goepfert

Contact : metmap@orbifly.com




SOURCES & CREDITS :

   NOAA